Aurora, Illinois
Current Conditions -  °F | °C
As of 1:52 AM on Tuesday 21 Oct 2014 (Local Time) from KARR Reporting Station
Overcast Overcast  
Wind Chill: 47°   Ceiling: 4600
Heat Index: 49°   Visibility: 10mi
Dew Point: 41°   Wind: 5mph
Humidity: 74%   Direction: 350°N
Pressure: 30.03"   Gusts: NA
Location:  41.76°N, 88.31°W
Report Text: KARR 210652Z AUTO 35004KT 10SM OVC046 09/05 A3003 RMK AO2 SLP168 T00940050
Loading
Personal Weather Stations






























Interactive Weather Map
Tropical Storm Tracking
New forecast layout! Learn more

10-Day Weather Forecast

Advertisements
Track Severe Weather on mobile